Time;durP1;ratioP1;P1;durP2;ratioP2;P2;SDS_P1;SDS_P2;PMS_P1;PMS_P2;Temp;Humidity;BMP_temperature;BMP_pressure;BME280_temperature;BME280_humidity;BME280_pressure;Samples;Min_cycle;Max_cycle;Signal;HPM_P1;HPM_P2
2023/06/15 00:00:43;;;;;;;5.03;3.38;;;;;18.30;98618.00;;;;5072826;28;20101;-60
2023/06/15 00:03:10;;;;;;;4.50;3.47;;;;;18.20;98615.00;;;;5076249;28;20492;-62
2023/06/15 00:05:37;;;;;;;4.68;3.50;;;;;18.10;98615.00;;;;5085045;28;20052;-62
2023/06/15 00:08:04;;;;;;;4.30;3.65;;;;;18.00;98618.00;;;;5083943;28;20116;-62
2023/06/15 00:10:30;;;;;;;5.38;3.78;;;;;17.90;98616.00;;;;5071477;28;20044;-62
2023/06/15 00:12:57;;;;;;;4.40;3.50;;;;;17.90;98619.00;;;;5072935;28;20082;-62
2023/06/15 00:15:27;;;;;;;5.28;3.65;;;;;18.00;98616.00;;;;5071627;28;20135;-62
2023/06/15 00:17:54;;;;;;;4.03;3.63;;;;;17.90;98623.00;;;;5054827;28;20044;-61
2023/06/15 00:20:28;;;;;;;3.83;3.50;;;;;17.90;98616.00;;;;5071070;28;20071;-62
2023/06/15 00:22:55;;;;;;;;;;;;;17.80;98627.00;;;;5071729;28;20049;-62
2023/06/15 00:25:22;;;;;;;13.25;4.32;;;;;17.80;98613.00;;;;5055261;28;20018;-62
2023/06/15 00:27:49;;;;;;;6.60;4.10;;;;;17.80;98622.00;;;;5071174;28;20044;-62
2023/06/15 00:30:16;;;;;;;6.72;3.80;;;;;17.70;98625.00;;;;5054541;28;20059;-63
2023/06/15 00:32:44;;;;;;;4.38;3.88;;;;;17.80;98626.00;;;;5054370;28;20131;-61
2023/06/15 00:35:11;;;;;;;6.43;3.70;;;;;17.70;98629.00;;;;5072759;28;20064;-62
2023/06/15 00:37:37;;;;;;;4.18;3.78;;;;;17.60;98637.00;;;;5071170;28;20135;-62
2023/06/15 00:40:06;;;;;;;4.72;3.83;;;;;17.60;98625.00;;;;5072067;28;20040;-61
2023/06/15 00:42:33;;;;;;;4.03;3.63;;;;;17.50;98628.00;;;;5070906;28;20048;-62
2023/06/15 00:44:59;;;;;;;4.15;3.75;;;;;17.50;98626.00;;;;5054222;28;20484;-61
2023/06/15 00:47:26;;;;;;;3.88;3.53;;;;;17.50;98628.00;;;;5053951;28;20044;-61
2023/06/15 00:49:54;;;;;;;6.68;3.88;;;;;17.60;98637.00;;;;5071836;28;20056;-61
2023/06/15 00:52:22;;;;;;;3.47;3.20;;;;;17.50;98632.00;;;;5070865;28;20078;-61
2023/06/15 00:54:50;;;;;;;5.13;3.75;;;;;17.40;98638.00;;;;5072067;28;20075;-61
2023/06/15 00:57:18;;;;;;;4.75;3.90;;;;;17.40;98634.00;;;;5071894;28;20150;-61
2023/06/15 00:59:45;;;;;;;6.90;4.10;;;;;17.20;98638.00;;;;5070442;28;20651;-60
2023/06/15 01:02:12;;;;;;;4.90;3.72;;;;;17.20;98635.00;;;;5070614;28;20106;-61
2023/06/15 01:04:40;;;;;;;4.30;3.70;;;;;17.10;98637.00;;;;5071231;28;20051;-61
2023/06/15 01:07:10;;;;;;;5.40;4.10;;;;;17.10;98637.00;;;;5075897;28;20079;-61
2023/06/15 01:09:40;;;;;;;6.22;3.83;;;;;17.10;98637.00;;;;5075960;28;20119;-61
2023/06/15 01:12:11;;;;;;;5.60;3.60;;;;;17.10;98635.00;;;;5075142;28;20523;-62
2023/06/15 01:14:39;;;;;;;9.48;3.60;;;;;17.10;98626.00;;;;5076225;28;20052;-62
2023/06/15 01:17:10;;;;;;;3.95;3.58;;;;;17.00;98632.00;;;;5075811;28;20106;-62
2023/06/15 01:19:53;;;;;;;4.93;3.80;;;;;16.90;98632.00;;;;5074459;28;20517;-62
2023/06/15 01:22:34;;;;;;;3.83;3.53;;;;;16.80;98625.00;;;;5075327;28;20051;-62
2023/06/15 01:25:08;;;;;;;4.30;3.53;;;;;16.80;98622.00;;;;5075777;28;20094;-62
2023/06/15 01:27:36;;;;;;;3.63;3.33;;;;;16.80;98625.00;;;;5073742;28;20346;-60
2023/06/15 01:30:07;;;;;;;4.93;3.90;;;;;16.80;98619.00;;;;5074525;28;20036;-62
2023/06/15 01:32:34;;;;;;;4.25;3.78;;;;;16.80;98618.00;;;;5074975;28;20068;-63
2023/06/15 01:35:01;;;;;;;8.10;3.95;;;;;16.70;98621.00;;;;5074918;28;20048;-62
2023/06/15 01:37:28;;;;;;;4.18;3.78;;;;;16.80;98612.00;;;;5074620;28;20092;-62
2023/06/15 01:39:55;;;;;;;4.10;3.53;;;;;16.80;98615.00;;;;5074862;28;20037;-63
2023/06/15 01:42:23;;;;;;;4.15;3.78;;;;;16.70;98617.00;;;;5074984;28;20044;-63
2023/06/15 01:44:53;;;;;;;4.38;3.83;;;;;16.70;98617.00;;;;5074744;28;20079;-63
2023/06/15 01:47:20;;;;;;;5.90;3.65;;;;;16.60;98613.00;;;;5076561;28;20037;-62
2023/06/15 01:49:47;;;;;;;4.60;3.70;;;;;16.60;98619.00;;;;5075108;28;20063;-63
2023/06/15 01:52:14;;;;;;;4.90;3.83;;;;;16.60;98614.00;;;;5074079;28;20049;-62
2023/06/15 01:54:41;;;;;;;5.22;4.15;;;;;16.70;98624.00;;;;5075695;28;20064;-62
2023/06/15 01:57:07;;;;;;;4.32;3.92;;;;;16.80;98618.00;;;;5074256;28;20068;-62
2023/06/15 01:59:34;;;;;;;4.65;3.80;;;;;16.60;98616.00;;;;5075574;28;20048;-62
2023/06/15 02:02:01;;;;;;;4.43;4.03;;;;;16.40;98613.00;;;;5057656;28;20068;-62
2023/06/15 02:04:28;;;;;;;6.18;4.05;;;;;16.40;98614.00;;;;5075450;28;20044;-63
2023/06/15 02:06:57;;;;;;;8.85;4.30;;;;;16.40;98614.00;;;;5057734;28;20071;-63
2023/06/15 02:09:24;;;;;;;4.35;3.92;;;;;16.50;98617.00;;;;5057538;28;20094;-63
2023/06/15 02:11:50;;;;;;;5.75;4.15;;;;;16.50;98618.00;;;;5057680;28;20516;-63
2023/06/15 02:14:18;;;;;;;4.80;3.67;;;;;16.50;98630.00;;;;5074189;28;20131;-63
2023/06/15 02:16:48;;;;;;;4.95;3.92;;;;;16.40;98618.00;;;;5072499;28;20414;-62
2023/06/15 02:19:21;;;;;;;5.05;4.53;;;;;16.40;98628.00;;;;5073629;28;20036;-62
2023/06/15 02:21:49;;;;;;;4.90;3.90;;;;;16.30;98623.00;;;;5074967;28;20047;-62
2023/06/15 02:24:16;;;;;;;5.03;4.18;;;;;16.30;98616.00;;;;5073684;28;20044;-62
2023/06/15 02:26:43;;;;;;;4.75;4.25;;;;;16.20;98618.00;;;;5074887;28;20051;-62
2023/06/15 02:29:10;;;;;;;4.15;3.78;;;;;16.10;98622.00;;;;5056517;28;20052;-61
2023/06/15 02:31:39;;;;;;;4.70;4.30;;;;;16.00;98626.00;;;;5073300;28;20056;-62
2023/06/15 02:34:06;;;;;;;4.82;3.83;;;;;16.10;98619.00;;;;5074744;28;20528;-63
2023/06/15 02:36:34;;;;;;;4.60;4.15;;;;;16.10;98617.00;;;;5073710;28;20413;-62
2023/06/15 02:39:02;;;;;;;6.60;4.05;;;;;16.20;98616.00;;;;5073410;28;20517;-63
2023/06/15 02:41:29;;;;;;;6.25;4.50;;;;;16.10;98626.00;;;;5073384;28;20454;-62
2023/06/15 02:43:55;;;;;;;4.85;4.40;;;;;16.10;98623.00;;;;5073219;28;20053;-63
2023/06/15 02:46:22;;;;;;;7.60;4.55;;;;;16.10;98628.00;;;;5073180;28;20045;-62
2023/06/15 02:48:53;;;;;;;4.47;4.07;;;;;16.10;98628.00;;;;5073087;28;20080;-63
2023/06/15 02:51:21;;;;;;;4.18;3.78;;;;;16.00;98628.00;;;;5073247;28;20064;-63
2023/06/15 02:53:48;;;;;;;4.53;4.13;;;;;16.00;98635.00;;;;5073099;28;20045;-63
2023/06/15 02:56:18;;;;;;;6.20;4.55;;;;;15.80;98640.00;;;;5072910;28;20055;-63
2023/06/15 02:58:47;;;;;;;6.07;3.85;;;;;15.60;98635.00;;;;5072569;28;20044;-63
2023/06/15 03:01:18;;;;;;;4.68;4.30;;;;;15.40;98636.00;;;;5072822;28;20048;-63
2023/06/15 03:03:50;;;;;;;4.70;4.25;;;;;15.40;98636.00;;;;5057148;28;20094;-63
2023/06/15 03:06:18;;;;;;;5.38;4.40;;;;;15.40;98639.00;;;;5072423;28;20048;-63
2023/06/15 03:08:46;;;;;;;5.53;4.43;;;;;15.40;98643.00;;;;5072326;28;20037;-63
2023/06/15 03:11:30;;;;;;;9.32;5.78;;;;;15.40;98640.00;;;;5072587;28;20524;-63
2023/06/15 03:13:58;;;;;;;4.90;4.40;;;;;15.30;98642.00;;;;5056049;28;20045;-63
2023/06/15 03:16:32;;;;;;;9.70;7.15;;;;;15.20;98640.00;;;;5072361;28;20056;-63
2023/06/15 03:19:01;;;;;;;8.50;6.28;;;;;15.10;98642.00;;;;5072098;28;20044;-63
2023/06/15 03:21:30;;;;;;;7.18;5.00;;;;;15.10;98641.00;;;;5072361;28;20052;-62
2023/06/15 03:23:58;;;;;;;5.82;5.07;;;;;15.10;98641.00;;;;5072265;28;20134;-62
2023/06/15 03:26:29;;;;;;;5.43;4.75;;;;;15.20;98644.00;;;;5072178;28;20052;-63
2023/06/15 03:28:57;;;;;;;5.95;5.35;;;;;15.20;98645.00;;;;5071714;28;20136;-62
2023/06/15 03:31:28;;;;;;;6.82;4.80;;;;;15.20;98639.00;;;;5072003;28;20052;-63
2023/06/15 03:33:57;;;;;;;5.47;4.97;;;;;15.10;98647.00;;;;5071859;28;20051;-62
2023/06/15 03:36:25;;;;;;;7.25;4.97;;;;;15.10;98646.00;;;;5071828;28;20560;-62
2023/06/15 03:38:53;;;;;;;6.40;4.95;;;;;15.10;98648.00;;;;5071672;28;20503;-61
2023/06/15 03:41:19;;;;;;;6.78;5.05;;;;;15.00;98641.00;;;;5055188;28;20045;-62
2023/06/15 03:43:47;;;;;;;5.57;5.00;;;;;15.10;98644.00;;;;5071820;28;20447;-62
2023/06/15 03:46:13;;;;;;;5.60;5.10;;;;;15.10;98640.00;;;;5071688;28;20048;-62
2023/06/15 03:48:41;;;;;;;5.97;5.35;;;;;15.00;98645.00;;;;5071578;28;20517;-62
2023/06/15 03:51:08;;;;;;;5.35;4.80;;;;;15.00;98636.00;;;;5071527;28;20131;-62
2023/06/15 03:53:36;;;;;;;5.20;4.70;;;;;15.10;98651.00;;;;5071533;28;20155;-62
2023/06/15 03:56:03;;;;;;;4.85;4.43;;;;;15.10;98647.00;;;;5072659;28;20075;-62
2023/06/15 03:58:30;;;;;;;11.18;7.88;;;;;15.00;98641.00;;;;5071324;28;20048;-62
2023/06/15 04:00:57;;;;;;;6.68;5.97;;;;;15.10;98652.00;;;;5071380;28;20052;-62
2023/06/15 04:03:24;;;;;;;4.78;4.35;;;;;15.30;98663.00;;;;5071427;28;20076;-62
2023/06/15 04:05:51;;;;;;;5.95;4.63;;;;;15.50;98656.00;;;;5073113;28;20036;-62
2023/06/15 04:08:17;;;;;;;9.80;6.13;;;;;15.60;98669.00;;;;5072706;28;20041;-63
2023/06/15 04:10:44;;;;;;;6.43;5.72;;;;;15.70;98665.00;;;;5080443;28;20044;-62
2023/06/15 04:13:12;;;;;;;9.00;6.43;;;;;15.80;98665.00;;;;5070383;28;20060;-62
2023/06/15 04:15:39;;;;;;;5.80;4.97;;;;;16.00;98663.00;;;;5078733;28;20053;-62
2023/06/15 04:18:08;;;;;;;6.00;5.20;;;;;16.10;98663.00;;;;5071148;28;20048;-62
2023/06/15 04:20:36;;;;;;;5.97;5.22;;;;;16.10;98662.00;;;;5072323;28;20048;-62
2023/06/15 04:23:02;;;;;;;8.20;5.15;;;;;16.20;98668.00;;;;5072371;28;20074;-62
2023/06/15 04:25:29;;;;;;;7.82;5.53;;;;;16.30;98668.00;;;;5071286;28;20494;-61
2023/06/15 04:27:56;;;;;;;9.70;5.60;;;;;16.50;98673.00;;;;5070963;28;20044;-61
2023/06/15 04:30:27;;;;;;;6.13;5.20;;;;;16.60;98673.00;;;;5070792;28;20045;-62
2023/06/15 04:32:59;;;;;;;7.22;4.90;;;;;16.60;98679.00;;;;5072471;28;20063;-62
2023/06/15 04:35:31;;;;;;;6.57;4.47;;;;;16.60;98678.00;;;;5072693;28;20086;-62
2023/06/15 04:37:59;;;;;;;6.47;5.18;;;;;16.70;98678.00;;;;5071004;28;20044;-61
2023/06/15 04:40:26;;;;;;;7.75;6.95;;;;;16.80;98682.00;;;;5053760;28;20523;-62
2023/06/15 04:42:53;;;;;;;7.13;5.88;;;;;16.90;98685.00;;;;5070973;28;20051;-61
2023/06/15 04:45:20;;;;;;;5.30;4.80;;;;;17.00;98683.00;;;;5071084;28;20059;-63
2023/06/15 04:47:47;;;;;;;10.88;4.60;;;;;17.00;98686.00;;;;5054270;28;20561;-61
2023/06/15 04:50:14;;;;;;;8.00;4.97;;;;;17.10;98686.00;;;;5070508;28;20071;-63
2023/06/15 04:52:42;;;;;;;4.88;4.47;;;;;17.30;98690.00;;;;5070914;28;20055;-61
2023/06/15 04:55:10;;;;;;;5.63;5.10;;;;;17.50;98692.00;;;;5071948;28;20457;-62
2023/06/15 04:57:37;;;;;;;10.35;8.85;;;;;17.60;98698.00;;;;5070593;28;20076;-61
2023/06/15 05:00:07;;;;;;;12.05;8.60;;;;;17.60;98702.00;;;;5054358;28;20071;-62
2023/06/15 05:02:39;;;;;;;9.70;7.68;;;;;17.40;98697.00;;;;5071570;28;20049;-62
2023/06/15 05:05:06;;;;;;;10.13;7.82;;;;;17.30;98699.00;;;;5072422;28;20059;-61
2023/06/15 05:07:32;;;;;;;8.65;6.70;;;;;17.30;98694.00;;;;5072873;28;20044;-62
2023/06/15 05:09:59;;;;;;;9.20;5.63;;;;;17.40;98699.00;;;;5071191;28;20045;-62
2023/06/15 05:12:29;;;;;;;10.88;5.88;;;;;17.50;98705.00;;;;5071719;28;20053;-63
2023/06/15 05:14:56;;;;;;;7.18;5.10;;;;;17.60;98699.00;;;;5071955;28;20083;-62
2023/06/15 05:17:24;;;;;;;7.03;4.80;;;;;17.70;98698.00;;;;5071652;28;20052;-63
2023/06/15 05:19:51;;;;;;;4.80;4.30;;;;;17.80;98704.00;;;;5071510;28;20539;-62
2023/06/15 05:22:18;;;;;;;8.95;4.60;;;;;17.90;98709.00;;;;5071969;28;20049;-62
2023/06/15 05:24:45;;;;;;;4.25;3.75;;;;;17.90;98700.00;;;;5071020;28;20501;-62
2023/06/15 05:27:12;;;;;;;5.35;4.03;;;;;17.90;98703.00;;;;5070420;28;20052;-63
2023/06/15 05:29:41;;;;;;;3.75;3.40;;;;;18.00;98709.00;;;;5070995;28;20492;-63
2023/06/15 05:32:09;;;;;;;7.40;4.38;;;;;18.00;98711.00;;;;5070556;28;20101;-63
2023/06/15 05:34:37;;;;;;;5.07;4.32;;;;;18.10;98713.00;;;;5070964;28;20139;-62
2023/06/15 05:37:04;;;;;;;4.18;3.78;;;;;18.20;98711.00;;;;5070976;28;20463;-63
2023/06/15 05:39:37;;;;;;;5.30;3.88;;;;;18.20;98716.00;;;;5070609;28;20060;-61
2023/06/15 05:42:04;;;;;;;4.53;3.67;;;;;18.30;98709.00;;;;5070420;28;20048;-61
2023/06/15 05:44:33;;;;;;;4.40;4.00;;;;;18.30;98714.00;;;;5070605;28;20049;-62
2023/06/15 05:47:00;;;;;;;6.43;3.85;;;;;18.50;98715.00;;;;5070416;28;20045;-62
2023/06/15 05:49:27;;;;;;;5.13;4.00;;;;;18.50;98725.00;;;;5070159;28;20037;-62
2023/06/15 05:51:54;;;;;;;4.90;4.07;;;;;18.60;98722.00;;;;5073191;28;20098;-62
2023/06/15 05:54:23;;;;;;;4.97;3.88;;;;;18.70;98724.00;;;;5073956;28;20509;-61
2023/06/15 05:56:50;;;;;;;5.63;4.47;;;;;18.80;98731.00;;;;5074016;28;20097;-63
2023/06/15 05:59:18;;;;;;;6.93;4.00;;;;;18.90;98724.00;;;;5057294;28;20529;-60
2023/06/15 06:01:58;;;;;;;6.50;3.70;;;;;19.10;98736.00;;;;5074334;28;20062;-63
2023/06/15 06:04:25;;;;;;;6.78;4.00;;;;;19.20;98735.00;;;;5073668;28;20049;-63
2023/06/15 06:06:52;;;;;;;5.30;4.07;;;;;19.20;98732.00;;;;5074753;28;20040;-63
2023/06/15 06:09:19;;;;;;;4.20;3.72;;;;;19.30;98733.00;;;;5073377;28;20045;-63
2023/06/15 06:11:49;;;;;;;7.03;3.50;;;;;19.30;98735.00;;;;5057019;28;20071;-63
2023/06/15 06:14:17;;;;;;;6.43;4.43;;;;;19.40;98733.00;;;;5073724;28;20459;-63
2023/06/15 06:16:44;;;;;;;7.00;4.45;;;;;19.40;98735.00;;;;5073571;28;20040;-62
2023/06/15 06:19:11;;;;;;;5.57;4.93;;;;;19.50;98737.00;;;;5073122;28;20040;-63
2023/06/15 06:21:39;;;;;;;5.55;4.57;;;;;19.60;98729.00;;;;5073160;28;20049;-62
2023/06/15 06:24:05;;;;;;;6.07;4.53;;;;;19.70;98738.00;;;;5073386;28;20044;-62
2023/06/15 06:26:35;;;;;;;5.03;3.88;;;;;19.80;98743.00;;;;5074183;28;20075;-62
2023/06/15 06:29:03;;;;;;;4.20;3.75;;;;;19.90;98734.00;;;;5074635;28;20112;-62
2023/06/15 06:31:30;;;;;;;3.50;3.20;;;;;20.00;98735.00;;;;5074804;28;20044;-63
2023/06/15 06:33:57;;;;;;;6.57;3.33;;;;;20.10;98734.00;;;;5073130;28;20052;-62
2023/06/15 06:36:25;;;;;;;3.15;2.85;;;;;20.10;98737.00;;;;5057204;28;20076;-63
2023/06/15 06:38:52;;;;;;;5.45;3.53;;;;;20.20;98738.00;;;;5074779;28;20123;-61
2023/06/15 06:41:28;;;;;;;6.40;3.35;;;;;20.20;98745.00;;;;5058220;28;20052;-63
2023/06/15 06:43:54;;;;;;;3.17;2.88;;;;;20.10;98741.00;;;;5074834;28;20494;-63
2023/06/15 06:46:22;;;;;;;3.55;3.25;;;;;20.20;98741.00;;;;5075499;28;20068;-63
2023/06/15 06:48:49;;;;;;;4.28;2.70;;;;;20.20;98741.00;;;;5075048;28;20037;-63
2023/06/15 06:51:17;;;;;;;4.65;3.25;;;;;20.30;98741.00;;;;5074823;28;20049;-63
2023/06/15 06:53:44;;;;;;;5.28;3.38;;;;;20.50;98737.00;;;;5073269;28;20048;-63
2023/06/15 06:56:10;;;;;;;4.45;3.67;;;;;20.60;98748.00;;;;5074616;28;20485;-63
2023/06/15 06:58:37;;;;;;;3.58;3.25;;;;;20.60;98741.00;;;;5074822;28;20049;-63
2023/06/15 07:01:04;;;;;;;8.38;2.70;;;;;20.50;98737.00;;;;5075051;28;20498;-63
2023/06/15 07:03:31;;;;;;;6.40;3.40;;;;;20.60;98741.00;;;;5073494;28;20039;-63
2023/06/15 07:05:59;;;;;;;4.78;3.20;;;;;20.60;98735.00;;;;5074605;28;20052;-63
2023/06/15 07:08:26;;;;;;;4.53;3.42;;;;;20.80;98744.00;;;;5073867;28;20112;-62
2023/06/15 07:10:53;;;;;;;3.88;3.25;;;;;20.90;98744.00;;;;5073997;28;20404;-63
2023/06/15 07:13:19;;;;;;;5.22;3.70;;;;;20.90;98739.00;;;;5075225;28;20040;-63
2023/06/15 07:15:46;;;;;;;3.95;3.08;;;;;20.90;98747.00;;;;5057575;28;20758;-65
2023/06/15 07:18:14;;;;;;;3.30;3.00;;;;;20.90;98744.00;;;;5073803;28;20060;-62
2023/06/15 07:20:41;;;;;;;5.45;2.97;;;;;21.00;98749.00;;;;5073314;28;20055;-62
2023/06/15 07:23:08;;;;;;;3.42;3.13;;;;;21.00;98735.00;;;;5074092;28;20390;-63
2023/06/15 07:25:35;;;;;;;4.25;3.13;;;;;21.10;98735.00;;;;5072835;28;20109;-63
2023/06/15 07:28:03;;;;;;;3.50;3.20;;;;;21.20;98736.00;;;;5074239;28;20037;-62
2023/06/15 07:30:29;;;;;;;4.18;3.03;;;;;21.20;98735.00;;;;5074255;28;20040;-63
2023/06/15 07:32:56;;;;;;;3.35;2.83;;;;;21.30;98734.00;;;;5072796;28;20051;-63
2023/06/15 07:35:23;;;;;;;4.00;2.95;;;;;21.40;98734.00;;;;5072291;28;20143;-63
2023/06/15 07:37:50;;;;;;;5.30;3.47;;;;;21.40;98737.00;;;;5073787;28;20051;-63
2023/06/15 07:40:16;;;;;;;4.45;3.28;;;;;21.40;98737.00;;;;5073440;28;20048;-63
2023/06/15 07:42:44;;;;;;;3.88;3.50;;;;;21.50;98737.00;;;;5072591;28;20150;-63
2023/06/15 07:45:11;;;;;;;3.30;3.00;;;;;21.70;98735.00;;;;5072200;28;20062;-62
2023/06/15 07:47:38;;;;;;;5.60;3.50;;;;;21.90;98735.00;;;;5072668;28;20064;-63
2023/06/15 07:50:08;;;;;;;5.45;3.42;;;;;21.90;98746.00;;;;5055680;28;20037;-63
2023/06/15 07:52:35;;;;;;;5.80;3.17;;;;;22.00;98751.00;;;;5072086;28;20044;-63
2023/06/15 07:55:02;;;;;;;5.78;3.25;;;;;22.00;98743.00;;;;5055696;28;20090;-63
2023/06/15 07:57:28;;;;;;;6.95;3.33;;;;;22.10;98742.00;;;;5073596;28;20036;-62
2023/06/15 07:59:55;;;;;;;3.30;3.00;;;;;22.20;98743.00;;;;5075397;28;20069;-63
2023/06/15 08:02:21;;;;;;;4.55;2.92;;;;;22.20;98743.00;;;;5075896;28;20052;-63
2023/06/15 08:04:48;;;;;;;7.00;3.50;;;;;22.30;98738.00;;;;5073724;28;20051;-62
2023/06/15 08:07:15;;;;;;;3.42;3.13;;;;;22.50;98748.00;;;;5074192;28;20131;-64
2023/06/15 08:09:42;;;;;;;4.05;3.53;;;;;22.60;98746.00;;;;5072128;28;20114;-64
2023/06/15 08:12:09;;;;;;;5.50;2.97;;;;;22.60;98752.00;;;;5072237;28;20045;-63
2023/06/15 08:14:36;;;;;;;3.45;3.15;;;;;22.60;98744.00;;;;5071748;28;20040;-63
2023/06/15 08:17:03;;;;;;;6.20;3.30;;;;;22.60;98748.00;;;;5074462;28;20064;-63
2023/06/15 08:19:30;;;;;;;4.68;3.03;;;;;22.60;98746.00;;;;5076936;28;20045;-62
2023/06/15 08:21:56;;;;;;;3.00;2.70;;;;;22.70;98749.00;;;;5076129;28;20044;-63
2023/06/15 08:24:23;;;;;;;6.70;3.38;;;;;22.70;98734.00;;;;5057137;28;20048;-63
2023/06/15 08:26:54;;;;;;;3.70;3.30;;;;;22.70;98743.00;;;;5075230;28;20045;-62
2023/06/15 08:29:21;;;;;;;5.80;2.92;;;;;22.80;98741.00;;;;5075447;28;20067;-62
2023/06/15 08:31:52;;;;;;;4.82;2.83;;;;;22.90;98741.00;;;;5078474;28;20044;-63
2023/06/15 08:34:18;;;;;;;5.20;3.10;;;;;23.10;98734.00;;;;5085972;28;20083;-63
2023/06/15 08:36:46;;;;;;;5.30;3.00;;;;;23.20;98741.00;;;;5076155;28;20436;-63
2023/06/15 08:39:13;;;;;;;3.83;3.10;;;;;23.30;98750.00;;;;5082175;28;20041;-63
2023/06/15 08:41:44;;;;;;;3.17;2.88;;;;;23.30;98745.00;;;;5060346;28;20151;-63
2023/06/15 08:44:12;;;;;;;3.70;3.20;;;;;23.40;98742.00;;;;5077547;28;20056;-62
2023/06/15 08:46:39;;;;;;;4.38;2.78;;;;;23.30;98743.00;;;;5075661;28;20048;-62
2023/06/15 08:49:06;;;;;;;5.32;3.55;;;;;23.50;98742.00;;;;5072471;28;20048;-62
2023/06/15 08:51:33;;;;;;;4.53;3.17;;;;;23.60;98746.00;;;;5073139;28;20062;-62
2023/06/15 08:54:03;;;;;;;6.43;3.28;;;;;23.70;98745.00;;;;5074267;28;20123;-63
2023/06/15 08:56:31;;;;;;;3.83;2.97;;;;;23.60;98746.00;;;;5076849;28;20045;-62
2023/06/15 08:58:58;;;;;;;4.03;2.88;;;;;23.60;98749.00;;;;5075494;28;20055;-62
2023/06/15 09:01:26;;;;;;;3.55;3.00;;;;;23.70;98743.00;;;;5073882;28;20127;-62
2023/06/15 09:03:55;;;;;;;3.95;2.75;;;;;23.70;98750.00;;;;5074142;28;20072;-62
2023/06/15 09:06:22;;;;;;;3.80;3.28;;;;;23.70;98749.00;;;;5074665;28;20037;-62
2023/06/15 09:08:51;;;;;;;4.57;3.40;;;;;23.70;98746.00;;;;5073798;28;20095;-61
2023/06/15 09:11:18;;;;;;;4.32;3.40;;;;;23.80;98748.00;;;;5075512;28;20053;-62
2023/06/15 09:13:45;;;;;;;3.70;3.10;;;;;23.80;98747.00;;;;5074849;28;20118;-62
2023/06/15 09:16:12;;;;;;;3.03;2.75;;;;;23.90;98755.00;;;;5075071;28;20053;-62
2023/06/15 09:18:44;;;;;;;3.75;3.38;;;;;23.90;98743.00;;;;5077287;28;20043;-62
2023/06/15 09:21:16;;;;;;;2.97;2.67;;;;;24.00;98742.00;;;;5083350;28;20051;-63
2023/06/15 09:23:44;;;;;;;3.95;2.63;;;;;24.00;98752.00;;;;5079416;28;20119;-63
2023/06/15 09:26:25;;;;;;;2.70;2.50;;;;;24.20;98757.00;;;;5085125;28;20059;-59
2023/06/15 09:28:57;;;;;;;3.22;2.97;;;;;24.30;98743.00;;;;5084965;28;20043;-63
2023/06/15 09:31:34;;;;;;;3.22;2.60;;;;;24.30;98750.00;;;;5080085;28;20135;-64
2023/06/15 09:34:02;;;;;;;5.13;2.72;;;;;24.40;98746.00;;;;5080084;28;20087;-61
2023/06/15 09:36:40;;;;;;;3.15;2.35;;;;;24.30;98744.00;;;;5081685;28;20045;-63
2023/06/15 09:39:09;;;;;;;4.13;2.78;;;;;24.40;98739.00;;;;5081025;28;20082;-62
2023/06/15 09:41:50;;;;;;;4.68;2.50;;;;;24.50;98747.00;;;;5078962;28;20047;-63
2023/06/15 09:44:20;;;;;;;6.35;2.67;;;;;24.50;98743.00;;;;5078294;28;20090;-63
2023/06/15 09:46:50;;;;;;;2.95;2.60;;;;;24.60;98746.00;;;;5080208;28;20044;-62
2023/06/15 09:49:26;;;;;;;3.58;2.40;;;;;24.80;98735.00;;;;5082120;28;20036;-62
2023/06/15 09:51:54;;;;;;;3.97;2.67;;;;;24.90;98738.00;;;;5061691;28;20076;-62
2023/06/15 09:54:23;;;;;;;4.38;2.58;;;;;25.10;98731.00;;;;5079387;28;20052;-62
2023/06/15 09:56:51;;;;;;;2.65;2.45;;;;;25.30;98739.00;;;;5077884;28;20055;-63
2023/06/15 09:59:20;;;;;;;3.00;2.53;;;;;25.10;98739.00;;;;5079392;28;20463;-63
2023/06/15 10:01:54;;;;;;;2.85;2.22;;;;;25.30;98743.00;;;;5074998;28;20052;-62
2023/06/15 10:04:24;;;;;;;5.50;2.35;;;;;25.30;98739.00;;;;5074565;28;20044;-62
2023/06/15 10:07:01;;;;;;;2.88;2.40;;;;;25.20;98738.00;;;;5073793;28;20406;-62
2023/06/15 10:09:34;;;;;;;2.10;1.90;;;;;25.30;98746.00;;;;5057754;28;20055;-61
2023/06/15 10:12:10;;;;;;;3.33;1.92;;;;;25.30;98741.00;;;;5057360;28;20045;-62
2023/06/15 10:14:57;;;;;;;3.08;2.40;;;;;25.30;98735.00;;;;5075207;28;20123;-62
2023/06/15 10:17:30;;;;;;;2.78;2.10;;;;;25.30;98737.00;;;;5073735;28;20052;-62
2023/06/15 10:20:07;;;;;;;2.38;2.17;;;;;25.30;98741.00;;;;5073953;28;20040;-62
2023/06/15 10:22:48;;;;;;;2.97;2.28;;;;;25.40;98732.00;;;;5075735;28;20047;-63
2023/06/15 10:25:15;;;;;;;2.30;2.10;;;;;25.40;98730.00;;;;5058095;28;20052;-62
2023/06/15 10:27:43;;;;;;;2.20;2.00;;;;;25.40;98732.00;;;;5074207;28;20111;-61
2023/06/15 10:30:20;;;;;;;2.83;2.00;;;;;25.30;98729.00;;;;5074808;28;20064;-62
2023/06/15 10:32:56;;;;;;;3.20;2.47;;;;;25.30;98735.00;;;;5073328;28;20068;-63
2023/06/15 10:35:32;;;;;;;2.35;1.80;;;;;25.50;98734.00;;;;5075988;28;20044;-63
2023/06/15 10:38:22;;;;;;;3.35;2.35;;;;;25.60;98732.00;;;;5075946;28;20110;-63
2023/06/15 10:40:51;;;;;;;2.55;2.35;;;;;25.60;98735.00;;;;5077172;28;20065;-63
2023/06/15 10:43:19;;;;;;;3.67;2.50;;;;;25.60;98718.00;;;;5076461;28;20445;-63
2023/06/15 10:45:47;;;;;;;2.42;2.25;;;;;25.70;98728.00;;;;5075874;28;20045;-64
2023/06/15 10:48:22;;;;;;;4.22;2.83;;;;;25.70;98727.00;;;;5075742;28;20048;-63
2023/06/15 10:50:51;;;;;;;3.13;2.45;;;;;25.80;98727.00;;;;5076912;28;20072;-63
2023/06/15 10:53:25;;;;;;;4.57;2.67;;;;;25.70;98731.00;;;;5073730;28;20083;-62
2023/06/15 10:55:58;;;;;;;2.45;2.25;;;;;25.80;98735.00;;;;5073215;28;20072;-62
2023/06/15 10:58:26;;;;;;;2.87;2.40;;;;;25.90;98734.00;;;;5073214;28;20052;-62
2023/06/15 11:01:15;;;;;;;5.05;2.30;;;;;26.10;98734.00;;;;5074006;28;20041;-63
2023/06/15 11:03:42;;;;;;;3.05;2.55;;;;;26.20;98744.00;;;;5072800;28;20060;-62
2023/06/15 11:06:22;;;;;;;2.90;2.60;;;;;26.10;98732.00;;;;5073747;28;20143;-62
2023/06/15 11:08:51;;;;;;;3.13;2.83;;;;;26.20;98733.00;;;;5073826;28;20049;-62
2023/06/15 11:11:29;;;;;;;3.13;2.65;;;;;26.20;98737.00;;;;5075033;28;20567;-63
2023/06/15 11:14:05;;;;;;;2.70;2.47;;;;;26.30;98732.00;;;;5074974;28;20044;-63
2023/06/15 11:16:36;;;;;;;4.07;2.60;;;;;26.40;98728.00;;;;5075241;28;20048;-62
2023/06/15 11:19:11;;;;;;;4.07;2.13;;;;;26.60;98735.00;;;;5074162;28;20076;-62
2023/06/15 11:21:44;;;;;;;3.00;2.72;;;;;26.30;98727.00;;;;5073972;28;20044;-62
2023/06/15 11:24:13;;;;;;;2.63;2.35;;;;;26.30;98721.00;;;;5073865;28;20120;-62
2023/06/15 11:26:40;;;;;;;2.85;2.58;;;;;26.30;98718.00;;;;5072895;28;20055;-61
2023/06/15 11:29:09;;;;;;;3.50;2.55;;;;;26.40;98726.00;;;;5073701;28;20079;-62
2023/06/15 11:31:36;;;;;;;2.97;2.30;;;;;26.40;98716.00;;;;5073803;28;20623;-62
2023/06/15 11:34:03;;;;;;;5.72;2.75;;;;;26.40;98727.00;;;;5073731;28;20566;-62
2023/06/15 11:36:30;;;;;;;4.00;2.67;;;;;26.20;98712.00;;;;5073347;28;20051;-61
2023/06/15 11:38:56;;;;;;;2.60;2.40;;;;;26.20;98707.00;;;;5073495;28;20037;-63
2023/06/15 11:41:23;;;;;;;3.15;2.83;;;;;26.30;98724.00;;;;5074309;28;20131;-63
2023/06/15 11:43:50;;;;;;;7.47;2.40;;;;;26.30;98715.00;;;;5072729;28;20040;-61
2023/06/15 11:46:22;;;;;;;3.90;2.15;;;;;26.40;98714.00;;;;5073490;28;20045;-62
2023/06/15 11:48:58;;;;;;;3.55;2.08;;;;;26.50;98716.00;;;;5073214;28;20051;-63
2023/06/15 11:51:25;;;;;;;3.50;2.28;;;;;26.50;98714.00;;;;5073352;28;20049;-62
2023/06/15 11:53:53;;;;;;;4.28;2.60;;;;;26.70;98721.00;;;;5073945;28;20505;-61
2023/06/15 11:56:20;;;;;;;4.45;2.63;;;;;26.70;98706.00;;;;5073834;28;20401;-63
2023/06/15 11:58:48;;;;;;;2.25;1.88;;;;;26.70;98709.00;;;;5073719;28;20041;-62
2023/06/15 12:01:17;;;;;;;2.70;2.50;;;;;26.60;98698.00;;;;5074583;28;20451;-62
2023/06/15 12:03:47;;;;;;;2.72;2.53;;;;;26.60;98707.00;;;;5073714;28;20052;-62
2023/06/15 12:06:31;;;;;;;2.78;2.13;;;;;26.70;98700.00;;;;5073695;28;20051;-62
2023/06/15 12:08:59;;;;;;;2.20;2.00;;;;;26.80;98702.00;;;;5071900;28;20044;-62
2023/06/15 12:11:28;;;;;;;2.58;2.33;;;;;27.00;98706.00;;;;5071929;28;20106;-62
2023/06/15 12:14:07;;;;;;;2.10;1.90;;;;;27.10;98698.00;;;;5071801;28;20120;-61
2023/06/15 12:16:34;;;;;;;3.80;2.53;;;;;27.10;98703.00;;;;5073356;28;20051;-62
2023/06/15 12:19:03;;;;;;;1.98;1.88;;;;;27.10;98699.00;;;;5055362;28;20102;-62
2023/06/15 12:21:32;;;;;;;3.03;2.13;;;;;27.10;98702.00;;;;5073773;28;20450;-63
2023/06/15 12:24:00;;;;;;;2.47;2.17;;;;;27.10;98696.00;;;;5073418;28;20086;-63
2023/06/15 12:26:32;;;;;;;4.60;2.30;;;;;27.20;98699.00;;;;5077682;28;20052;-63